KMCN/MCN METAR and TAF weather

Enter ICAO airport designator
Station Type Date Time Source
KMCN METAR 2022/05/23 13:27 UTC NOAA

KMCN 231327Z 17007KT 8SM -RA BKN110 22/20 A3010 RMK AO2 LTG DSNT NE-SE TSE12 P0009 T02170200 $


Station Type Date Time Source
KMCN Decoded METAR 2022/05/23 13:27 UTC NOAA

MIDDLE GEORGIA REGIONAL AIRPORT , GA, United States (KMCN) 32-41N 83-39W 109M
May 23, 2022 - 09:27 AM EDT / 2022.05.23 1327 UTC
Wind: from the S (170 degrees) at 8 MPH (7 KT):0
Visibility: 8 mile(s):0
Sky conditions: mostly cloudy
Weather: light rain; Lightning observed
Precipitation last hour: 0.09 inches
Temperature: 71.1 F (21.7 C)
Dew Point: 68.0 F (20.0 C)
Relative Humidity: 90%
Pressure (altimeter): 30.1 in. Hg (1019 hPa)
ob: KMCN 231327Z 17007KT 8SM -RA BKN110 22/20 A3010 RMK AO2 LTG DSNT NE-SE TSE12 P0009 T02170200
cycle: 13

Station Type Date Time Source
KMCN TAF 2022/05/23 12:48 UTC NOAA

TAF KMCN 231147Z 2312/2412 13005KT 5SM SHRA SCT009 BKN035 OVC100
TEMPO 2312/2314 VRB15G30KT 2SM TSRA BKN012CB
FM231500 17009KT P6SM VCSH OVC035
FM231700 20013KT P6SM -SHRA SCT025 BKN035
TEMPO 2317/2321 VRB15G30KT 3SM TSRA BKN025CB
FM240200 22005KT P6SM BKN090

Example: see airport list